Time;durP1;ratioP1;P1;durP2;ratioP2;P2;SDS_P1;SDS_P2;PMS_P1;PMS_P2;Temp;Humidity;BMP_temperature;BMP_pressure;BME280_temperature;BME280_humidity;BME280_pressure;Samples;Min_cycle;Max_cycle;Signal;HPM_P1;HPM_P2
2021/05/18 00:00:00;;;;;;;2.80;0.60;;;10.60;99.90;;;;;;4953911;29;20810;-52
2021/05/18 00:02:26;;;;;;;3.17;0.60;;;10.70;99.90;;;;;;4936194;29;20390;-51
2021/05/18 00:04:52;;;;;;;3.70;0.70;;;10.70;99.90;;;;;;4954076;29;20807;-52
2021/05/18 00:07:22;;;;;;;2.70;0.52;;;10.70;99.90;;;;;;4952950;29;20394;-52
2021/05/18 00:12:34;;;;;;;5.18;0.75;;;10.70;99.90;;;;;;4953611;29;20427;-53
2021/05/18 00:15:03;;;;;;;3.10;0.70;;;10.80;99.90;;;;;;4953781;29;20390;-53
2021/05/18 00:17:29;;;;;;;2.80;0.60;;;10.80;99.90;;;;;;4952714;29;21030;-53
2021/05/18 00:19:54;;;;;;;3.20;0.60;;;10.80;99.90;;;;;;4953889;29;20432;-59
2021/05/18 00:22:20;;;;;;;2.80;0.60;;;10.80;99.90;;;;;;4952764;29;20425;-53
2021/05/18 00:24:46;;;;;;;3.10;0.70;;;10.80;99.90;;;;;;4953629;29;20389;-53
2021/05/18 00:27:12;;;;;;;3.28;0.70;;;10.70;99.90;;;;;;4952751;29;20386;-53
2021/05/18 00:29:38;;;;;;;3.77;0.70;;;10.60;99.90;;;;;;4935721;29;20437;-53
2021/05/18 00:32:04;;;;;;;3.40;0.60;;;10.70;99.90;;;;;;4953301;29;20482;-53
2021/05/18 00:34:29;;;;;;;3.90;0.70;;;10.70;99.90;;;;;;4935596;29;20386;-52
2021/05/18 00:36:55;;;;;;;2.70;0.63;;;10.80;99.90;;;;;;4953499;29;20947;-52
2021/05/18 00:39:20;;;;;;;2.80;0.60;;;10.70;99.90;;;;;;4952342;29;20455;-53
2021/05/18 00:41:47;;;;;;;2.70;0.60;;;10.60;99.90;;;;;;4953672;29;20473;-53
2021/05/18 00:44:13;;;;;;;3.33;0.75;;;10.60;99.90;;;;;;4952481;29;20420;-53
2021/05/18 00:46:39;;;;;;;2.90;0.63;;;10.40;99.90;;;;;;4953306;29;20390;-52
2021/05/18 00:49:06;;;;;;;3.80;0.70;;;10.40;99.90;;;;;;4953358;29;20460;-53
2021/05/18 00:51:32;;;;;;;4.18;0.65;;;10.50;99.90;;;;;;4952288;29;20405;-53
2021/05/18 00:54:01;;;;;;;3.30;0.70;;;10.50;99.90;;;;;;4953162;29;20392;-53
2021/05/18 00:59:06;;;;;;;2.70;0.50;;;10.50;99.90;;;;;;4952617;29;20903;-53
2021/05/18 01:01:33;;;;;;;2.90;0.65;;;10.50;99.90;;;;;;4951949;29;20425;-52
2021/05/18 01:03:59;;;;;;;2.90;0.70;;;10.50;99.90;;;;;;4952830;29;20401;-52
2021/05/18 01:08:58;;;;;;;3.00;0.60;;;10.40;99.90;;;;;;4952777;29;20422;-53
2021/05/18 01:11:28;;;;;;;3.30;0.60;;;10.50;99.90;;;;;;4951745;29;20404;-53
2021/05/18 01:13:58;;;;;;;3.30;0.60;;;10.50;99.90;;;;;;4953083;29;20436;-53
2021/05/18 01:16:27;;;;;;;3.80;0.70;;;10.50;99.90;;;;;;4952163;29;20385;-53
2021/05/18 01:18:53;;;;;;;3.10;0.70;;;10.50;99.90;;;;;;4952756;29;20393;-52
2021/05/18 01:21:19;;;;;;;3.88;0.60;;;10.30;99.90;;;;;;4951842;29;20394;-52
2021/05/18 01:23:45;;;;;;;2.92;0.60;;;10.20;99.90;;;;;;4952572;29;20928;-52
2021/05/18 01:26:13;;;;;;;4.30;0.50;;;10.20;99.90;;;;;;4934478;29;20886;-60
2021/05/18 01:28:40;;;;;;;2.80;0.50;;;10.30;99.90;;;;;;4952134;29;20433;-52
2021/05/18 01:31:08;;;;;;;2.70;0.60;;;10.30;99.90;;;;;;4952457;29;20402;-52
2021/05/18 01:33:33;;;;;;;3.65;0.70;;;10.30;99.90;;;;;;4951897;29;20466;-52
2021/05/18 01:36:01;;;;;;;3.40;0.70;;;10.30;99.90;;;;;;4952338;29;20389;-52
2021/05/18 01:38:40;;;;;;;2.90;0.60;;;10.30;99.90;;;;;;4934462;29;20399;-52
2021/05/18 01:43:51;;;;;;;3.65;0.80;;;10.20;99.90;;;;;;4952450;29;20835;-54
2021/05/18 01:46:19;;;;;;;3.70;0.70;;;10.10;99.90;;;;;;4951266;29;20386;-53
2021/05/18 01:48:50;;;;;;;3.45;0.90;;;10.10;99.90;;;;;;4952183;29;20545;-53
2021/05/18 01:51:16;;;;;;;3.30;0.90;;;10.20;99.90;;;;;;4951620;29;20386;-52
2021/05/18 01:53:41;;;;;;;4.33;0.87;;;10.30;99.90;;;;;;4952101;29;20719;-52
2021/05/18 01:58:36;;;;;;;2.80;0.70;;;10.60;99.90;;;;;;4951626;29;20417;-52
2021/05/18 02:01:02;;;;;;;3.58;0.60;;;10.60;99.90;;;;;;4952020;29;20390;-53
2021/05/18 02:03:28;;;;;;;3.50;0.60;;;10.60;99.90;;;;;;4951055;29;20390;-54
2021/05/18 02:05:56;;;;;;;3.55;0.60;;;10.70;99.90;;;;;;4952018;29;20428;-51
2021/05/18 02:08:23;;;;;;;2.80;0.60;;;10.60;99.90;;;;;;4950676;28;20469;-53
2021/05/18 02:10:50;;;;;;;4.00;0.70;;;10.50;99.90;;;;;;4952008;29;20390;-52
2021/05/18 02:13:16;;;;;;;3.50;0.85;;;10.60;99.90;;;;;;4951381;29;20405;-53
2021/05/18 02:15:55;;;;;;;3.10;0.60;;;10.60;99.90;;;;;;4951937;29;20429;-53
2021/05/18 02:18:55;;;;;;;4.25;1.15;;;10.60;99.90;;;;;;4951117;29;20380;-54
2021/05/18 02:26:23;;;;;;;3.90;0.70;;;10.40;99.90;;;;;;4950929;29;20393;-53
2021/05/18 02:28:49;;;;;;;3.20;0.80;;;10.30;99.90;;;;;;4951345;29;20500;-53
2021/05/18 02:31:15;;;;;;;3.80;0.80;;;10.30;99.90;;;;;;4951230;29;20411;-54
2021/05/18 02:33:47;;;;;;;4.13;1.00;;;10.20;99.90;;;;;;4951721;29;20394;-53
2021/05/18 02:36:13;;;;;;;3.15;0.70;;;10.20;99.90;;;;;;4951433;29;20393;-61
2021/05/18 02:38:39;;;;;;;3.10;0.70;;;10.10;99.90;;;;;;4951532;29;20394;-53
2021/05/18 02:41:05;;;;;;;3.97;0.70;;;10.10;99.90;;;;;;4951510;29;20476;-53
2021/05/18 02:43:38;;;;;;;4.30;0.90;;;10.10;99.90;;;;;;4950839;29;20457;-53
2021/05/18 02:46:15;;;;;;;2.83;0.75;;;10.10;99.90;;;;;;4951689;29;20417;-53
2021/05/18 02:51:24;;;;;;;2.92;0.70;;;10.10;99.90;;;;;;4950572;29;20384;-53
2021/05/18 02:53:50;;;;;;;3.23;0.70;;;10.10;99.90;;;;;;4951398;29;20465;-53
2021/05/18 02:56:32;;;;;;;5.60;1.10;;;10.10;99.90;;;;;;4950890;29;20401;-53
2021/05/18 02:59:11;;;;;;;3.10;0.70;;;10.10;99.90;;;;;;4951912;29;20485;-52
2021/05/18 03:01:38;;;;;;;3.17;0.70;;;10.10;99.90;;;;;;4951257;29;20382;-52
2021/05/18 03:04:05;;;;;;;3.10;0.80;;;9.90;99.90;;;;;;4951595;29;20807;-52
2021/05/18 03:06:31;;;;;;;3.83;0.77;;;9.90;99.90;;;;;;4950524;29;20393;-53
2021/05/18 03:08:57;;;;;;;3.20;0.80;;;9.90;99.90;;;;;;4951590;29;20551;-53
2021/05/18 03:11:23;;;;;;;3.10;0.75;;;9.90;99.90;;;;;;4950521;29;20731;-55
2021/05/18 03:13:48;;;;;;;2.80;0.80;;;9.90;99.90;;;;;;4951477;29;20410;-52
2021/05/18 03:16:14;;;;;;;3.37;0.70;;;9.90;99.90;;;;;;4950611;29;20401;-61
2021/05/18 03:18:40;;;;;;;3.50;1.00;;;9.30;99.90;;;;;;4951249;29;20842;-53
2021/05/18 03:21:05;;;;;;;2.80;0.80;;;10.00;99.90;;;;;;4952062;28;20727;-53
2021/05/18 03:23:31;;;;;;;6.10;1.10;;;9.90;99.90;;;;;;4936848;29;20485;-53
2021/05/18 03:25:57;;;;;;;3.90;0.90;;;10.00;99.90;;;;;;4954655;29;20394;-52
2021/05/18 03:28:22;;;;;;;2.80;0.80;;;10.00;99.90;;;;;;4953333;29;20488;-53
2021/05/18 03:35:59;;;;;;;2.90;0.70;;;9.80;99.90;;;;;;4954541;29;20420;-52
2021/05/18 03:38:29;;;;;;;2.67;0.70;;;9.80;99.90;;;;;;4953554;29;20446;-53
2021/05/18 03:40:59;;;;;;;3.28;0.60;;;9.80;99.90;;;;;;4937042;29;20390;-52
2021/05/18 03:48:41;;;;;;;3.63;1.00;;;9.70;99.90;;;;;;4954042;29;20389;-53
2021/05/18 04:04:56;;;;;;;3.00;0.90;;;9.50;99.90;;;;;;4953957;29;20509;-53
2021/05/18 04:10:23;;;;;;;3.08;0.70;;;9.60;99.90;;;;;;4953809;29;20460;-52
2021/05/18 04:13:15;;;;;;;3.40;0.80;;;9.60;99.90;;;;;;4953911;29;20755;-52
2021/05/18 04:18:22;;;;;;;3.00;0.75;;;9.80;99.90;;;;;;4953001;29;20429;-52
2021/05/18 05:00:55;;;;;;;4.20;0.90;;;10.40;99.90;;;;;;4936992;29;20438;-53
2021/05/18 05:06:18;;;;;;;3.10;1.00;;;10.50;99.90;;;;;;4953178;29;20401;-53
2021/05/18 05:16:29;;;;;;;2.90;0.80;;;10.70;99.90;;;;;;4951673;29;20437;-52
2021/05/18 05:18:55;;;;;;;3.30;1.10;;;10.70;99.90;;;;;;4935441;29;20802;-59
2021/05/18 05:21:27;;;;;;;3.60;0.80;;;10.60;99.90;;;;;;4951917;29;20382;-53
2021/05/18 05:23:53;;;;;;;2.90;0.70;;;10.60;99.90;;;;;;4952333;29;20390;-53
2021/05/18 05:26:18;;;;;;;3.00;0.80;;;10.70;99.90;;;;;;4951492;29;20956;-60
2021/05/18 05:28:44;;;;;;;4.00;1.00;;;10.50;99.90;;;;;;4952329;29;20434;-53
2021/05/18 05:31:10;;;;;;;4.38;1.00;;;10.50;99.90;;;;;;4952529;29;20425;-52
2021/05/18 05:33:35;;;;;;;5.88;1.00;;;10.50;99.90;;;;;;4934452;29;20425;-53
2021/05/18 05:36:01;;;;;;;3.30;0.90;;;10.50;99.90;;;;;;4952381;29;20441;-52
2021/05/18 05:38:29;;;;;;;4.82;1.40;;;10.50;99.90;;;;;;4951319;29;20488;-53
2021/05/18 05:40:55;;;;;;;3.20;1.00;;;10.70;99.90;;;;;;4951871;29;20724;-53
2021/05/18 05:43:21;;;;;;;7.30;1.20;;;10.70;99.90;;;;;;4950945;28;20424;-53
2021/05/18 05:45:49;;;;;;;3.30;1.08;;;10.90;99.90;;;;;;4951445;29;20712;-52
2021/05/18 05:48:15;;;;;;;3.30;1.00;;;11.10;99.90;;;;;;4951621;29;20476;-61
2021/05/18 05:50:40;;;;;;;4.90;1.10;;;11.10;99.90;;;;;;4952100;29;20469;-53
2021/05/18 05:53:06;;;;;;;3.50;1.10;;;11.20;99.90;;;;;;4957606;28;20722;-53
2021/05/18 05:55:32;;;;;;;3.75;0.88;;;11.00;99.90;;;;;;4961904;28;20443;-53
2021/05/18 05:57:58;;;;;;;4.87;1.40;;;10.80;99.90;;;;;;4950517;29;20406;-52
2021/05/18 06:00:23;;;;;;;3.67;1.10;;;10.70;99.90;;;;;;4950749;29;20434;-52
2021/05/18 06:02:49;;;;;;;3.70;1.37;;;10.40;99.90;;;;;;4951526;29;20394;-54
2021/05/18 06:05:15;;;;;;;4.82;1.13;;;10.50;99.90;;;;;;4950530;29;20410;-61
2021/05/18 06:07:40;;;;;;;4.80;1.50;;;10.50;99.90;;;;;;4950548;29;20401;-55
2021/05/18 06:10:16;;;;;;;4.05;1.30;;;10.50;99.90;;;;;;4951540;29;20421;-52
2021/05/18 06:13:10;;;;;;;5.50;1.50;;;10.60;99.90;;;;;;4951346;29;20457;-53
2021/05/18 06:37:39;;;;;;;3.60;1.10;;;11.10;99.90;;;;;;4950555;29;20433;-53
2021/05/18 06:43:07;;;;;;;4.03;1.10;;;11.30;99.90;;;;;;4951046;29;20384;-53
2021/05/18 06:48:18;;;;;;;3.75;1.00;;;12.50;99.90;;;;;;4950704;29;20413;-62
2021/05/18 06:50:44;;;;;;;3.30;0.90;;;13.10;99.90;;;;;;4950882;29;21016;-54
2021/05/18 06:53:09;;;;;;;4.30;1.40;;;13.30;99.90;;;;;;4951473;29;20484;-54
2021/05/18 06:55:36;;;;;;;3.70;0.90;;;13.20;99.90;;;;;;4950662;28;20389;-54
2021/05/18 06:58:05;;;;;;;3.10;1.00;;;12.80;99.90;;;;;;4954786;29;20401;-54
2021/05/18 07:00:33;;;;;;;4.10;1.10;;;12.40;99.90;;;;;;4954709;28;20432;-54
2021/05/18 07:02:59;;;;;;;3.45;0.90;;;12.60;99.90;;;;;;4974741;28;20422;-54
2021/05/18 07:08:05;;;;;;;4.82;1.00;;;12.40;99.90;;;;;;4974076;28;20399;-53
2021/05/18 07:10:31;;;;;;;3.80;0.95;;;12.30;99.90;;;;;;4972838;28;20450;-58
2021/05/18 07:12:56;;;;;;;8.70;1.40;;;12.40;99.90;;;;;;4974021;28;20407;-55
2021/05/18 07:15:25;;;;;;;4.53;1.00;;;12.40;99.90;;;;;;4972831;28;20487;-55
2021/05/18 07:17:50;;;;;;;3.67;1.10;;;12.40;99.90;;;;;;4973797;28;20784;-53
2021/05/18 07:20:17;;;;;;;3.80;1.10;;;12.50;99.90;;;;;;4974300;28;20400;-53
2021/05/18 07:22:42;;;;;;;4.50;1.10;;;12.30;99.90;;;;;;4973451;28;20393;-53
2021/05/18 07:25:08;;;;;;;5.07;1.40;;;12.10;99.90;;;;;;4973511;28;20391;-54
2021/05/18 07:27:34;;;;;;;5.60;1.42;;;12.10;99.90;;;;;;4973182;28;20451;-53
2021/05/18 07:30:00;;;;;;;4.33;1.20;;;12.30;99.90;;;;;;4972942;28;20428;-53
2021/05/18 07:32:25;;;;;;;6.50;1.60;;;12.50;99.90;;;;;;4973194;28;20395;-59
2021/05/18 07:34:52;;;;;;;3.90;1.50;;;12.40;99.90;;;;;;4973699;28;20389;-53
2021/05/18 07:37:17;;;;;;;4.82;1.60;;;12.60;99.90;;;;;;4973604;28;20392;-63
2021/05/18 07:39:43;;;;;;;8.50;1.50;;;12.50;99.90;;;;;;4972815;28;20463;-54
2021/05/18 07:42:10;;;;;;;5.00;1.60;;;12.50;99.90;;;;;;4973611;28;20467;-53
2021/05/18 07:44:36;;;;;;;5.17;1.60;;;12.70;99.90;;;;;;4972862;28;20384;-53
2021/05/18 07:47:02;;;;;;;5.60;2.10;;;12.60;99.90;;;;;;4973700;28;20387;-53
2021/05/18 07:49:34;;;;;;;5.15;1.83;;;12.70;99.90;;;;;;4972587;28;20511;-54
2021/05/18 08:05:53;;;;;;;6.70;2.38;;;12.80;99.90;;;;;;4953732;29;20421;-53
2021/05/18 08:08:19;;;;;;;5.10;2.10;;;13.00;99.90;;;;;;4952820;28;20482;-61
2021/05/18 08:10:51;;;;;;;6.68;2.40;;;12.30;99.90;;;;;;4952862;29;20475;-53
2021/05/18 08:13:21;;;;;;;5.70;2.40;;;13.10;99.90;;;;;;4953690;29;20393;-53
2021/05/18 10:35:13;;;;;;;3.60;1.10;;;17.90;99.90;;;;;;4955611;29;20429;-53
2021/05/18 10:37:42;;;;;;;4.43;0.90;;;17.70;99.90;;;;;;4944319;29;20725;-53
2021/05/18 10:40:24;;;;;;;4.50;0.90;;;17.00;99.90;;;;;;4955187;29;20405;-53
2021/05/18 10:43:10;;;;;;;4.60;1.10;;;16.30;99.90;;;;;;4954952;29;20922;-53
2021/05/18 10:45:59;;;;;;;4.63;0.95;;;16.40;99.90;;;;;;4954308;29;20428;-54
2021/05/18 10:48:25;;;;;;;5.32;1.30;;;16.50;99.90;;;;;;4954446;29;20409;-62
2021/05/18 10:50:50;;;;;;;6.03;1.20;;;16.60;99.90;;;;;;4937570;29;20404;-53
2021/05/18 10:53:27;;;;;;;4.90;1.30;;;16.90;99.90;;;;;;4955035;29;20488;-53
2021/05/18 10:56:05;;;;;;;5.30;1.20;;;17.00;99.90;;;;;;4954440;29;20793;-53
2021/05/18 10:58:31;;;;;;;5.72;1.30;;;17.00;99.90;;;;;;4953692;29;20422;-54
2021/05/18 11:00:58;;;;;;;6.10;1.00;;;16.80;99.90;;;;;;4958488;28;20447;-53
2021/05/18 11:03:24;;;;;;;6.10;1.20;;;16.40;99.90;;;;;;4973868;28;20520;-61
2021/05/18 11:05:53;;;;;;;4.68;1.10;;;16.30;99.90;;;;;;4973294;28;20405;-55
2021/05/18 11:08:19;;;;;;;4.83;0.93;;;16.20;99.90;;;;;;4973785;28;20889;-53
2021/05/18 11:10:46;;;;;;;4.68;1.10;;;16.70;99.90;;;;;;4973374;28;20502;-53
2021/05/18 11:13:12;;;;;;;3.90;1.00;;;17.40;99.90;;;;;;4973856;28;20420;-54
2021/05/18 11:15:38;;;;;;;5.20;0.90;;;17.60;99.90;;;;;;4972765;28;20412;-52
2021/05/18 11:18:04;;;;;;;5.50;1.10;;;18.00;99.90;;;;;;4974078;28;20376;-53
2021/05/18 11:25:52;;;;;;;5.80;1.00;;;17.10;99.90;;;;;;4972569;28;20403;-54
2021/05/18 11:28:17;;;;;;;3.67;0.85;;;17.00;99.90;;;;;;4973354;28;20510;-53
2021/05/18 11:30:46;;;;;;;5.82;1.00;;;17.20;99.90;;;;;;4972646;28;21201;-53
2021/05/18 11:33:12;;;;;;;3.92;0.77;;;17.30;99.90;;;;;;4973275;28;20523;-53
2021/05/18 11:35:38;;;;;;;4.00;0.70;;;17.40;99.90;;;;;;4973052;28;20805;-53
2021/05/18 11:38:05;;;;;;;5.00;1.00;;;17.60;99.90;;;;;;4973566;28;20397;-53
2021/05/18 11:40:39;;;;;;;4.65;0.98;;;17.50;99.90;;;;;;4972572;28;20400;-53
2021/05/18 11:43:16;;;;;;;4.80;0.90;;;17.60;99.70;;;;;;4972448;28;20388;-52
2021/05/18 11:45:42;;;;;;;3.50;0.77;;;16.80;99.90;;;;;;4972647;28;20438;-53
2021/05/18 11:48:18;;;;;;;3.38;0.50;;;16.10;99.90;;;;;;4973185;28;20380;-54
2021/05/18 11:50:45;;;;;;;6.10;0.75;;;15.40;99.70;;;;;;4972637;28;20419;-54
2021/05/18 11:53:34;;;;;;;4.05;0.50;;;14.90;99.40;;;;;;4973203;28;20421;-55
2021/05/18 11:56:13;;;;;;;4.20;0.60;;;14.50;99.90;;;;;;4955632;28;20388;-55
2021/05/18 11:58:39;;;;;;;3.40;0.50;;;14.30;99.90;;;;;;4971980;28;20486;-55
2021/05/18 12:01:06;;;;;;;3.47;0.70;;;14.40;99.90;;;;;;4968406;28;21298;-56
2021/05/18 12:03:34;;;;;;;4.15;0.60;;;14.60;99.90;;;;;;4953037;29;20397;-52
2021/05/18 12:06:00;;;;;;;3.50;0.60;;;15.40;99.90;;;;;;4953705;29;20805;-53
2021/05/18 12:08:27;;;;;;;4.60;0.80;;;16.10;99.90;;;;;;4953684;29;20393;-61
2021/05/18 12:10:53;;;;;;;4.60;0.80;;;16.60;98.40;;;;;;4953715;29;20457;-54
2021/05/18 12:13:31;;;;;;;4.80;0.70;;;16.80;96.80;;;;;;4953912;29;20394;-53
2021/05/18 12:16:02;;;;;;;4.03;0.90;;;16.90;99.10;;;;;;4953289;29;20501;-53
2021/05/18 12:18:36;;;;;;;4.78;1.00;;;17.00;97.50;;;;;;4953634;28;20865;-61
2021/05/18 12:21:07;;;;;;;4.47;0.80;;;17.20;98.50;;;;;;4953501;28;20483;-53
2021/05/18 12:23:34;;;;;;;6.18;1.20;;;17.30;99.40;;;;;;4952361;29;21215;-53
2021/05/18 12:26:11;;;;;;;4.90;0.90;;;17.10;96.90;;;;;;4953188;29;20390;-54
2021/05/18 12:28:37;;;;;;;3.60;0.90;;;16.80;98.30;;;;;;4952127;29;20453;-54
2021/05/18 12:31:04;;;;;;;5.50;1.10;;;16.70;98.20;;;;;;4952596;29;20762;-54
2021/05/18 12:33:36;;;;;;;4.25;0.90;;;16.70;97.70;;;;;;4952159;29;20390;-62
2021/05/18 12:36:06;;;;;;;5.55;0.80;;;16.80;98.70;;;;;;4954362;28;20476;-55
2021/05/18 12:38:32;;;;;;;4.80;0.82;;;16.80;99.10;;;;;;4962179;28;20406;-54
2021/05/18 12:41:05;;;;;;;3.63;0.73;;;16.90;99.90;;;;;;4962357;28;20455;-54
2021/05/18 12:43:41;;;;;;;3.75;0.88;;;16.50;99.90;;;;;;4966735;28;20402;-55
2021/05/18 12:46:12;;;;;;;4.10;0.70;;;15.80;98.20;;;;;;4959862;28;20420;-54
2021/05/18 12:48:39;;;;;;;9.30;1.20;;;15.50;99.40;;;;;;4960477;28;20506;-56
2021/05/18 12:51:19;;;;;;;5.20;0.80;;;15.40;99.90;;;;;;4961102;28;20392;-54
2021/05/18 12:53:44;;;;;;;4.10;0.80;;;15.70;99.90;;;;;;4959967;28;20827;-53
2021/05/18 12:56:13;;;;;;;5.00;0.90;;;16.30;99.90;;;;;;4962708;28;20424;-53
2021/05/18 12:58:39;;;;;;;3.92;0.98;;;16.60;99.90;;;;;;4961412;28;20536;-53
2021/05/18 13:01:11;;;;;;;3.60;0.88;;;17.20;99.90;;;;;;4951075;29;20806;-53
2021/05/18 13:03:38;;;;;;;3.60;0.73;;;17.20;97.80;;;;;;4959630;28;20399;-54
2021/05/18 13:06:05;;;;;;;3.50;0.90;;;16.80;97.50;;;;;;4957430;28;20893;-53
2021/05/18 13:08:39;;;;;;;3.50;0.60;;;16.70;97.30;;;;;;4951413;29;20437;-55
2021/05/18 13:12:11;;;;;;;3.70;0.70;;;16.50;98.40;;;;;;4951152;29;20878;-53
2021/05/18 13:14:01;;;;;;;4.53;0.80;;;17.20;99.90;;;;;;4951647;29;20791;-53
2021/05/18 13:16:35;;;;;;;5.80;1.10;;;16.90;98.50;;;;;;4951878;29;20492;-61
2021/05/18 13:19:06;;;;;;;4.20;0.90;;;16.80;97.50;;;;;;4952139;29;20398;-54
2021/05/18 13:21:48;;;;;;;4.70;0.82;;;16.70;98.70;;;;;;4951703;29;20882;-54
2021/05/18 13:26:40;;;;;;;3.80;0.80;;;17.20;97.80;;;;;;4958670;28;20427;-53
2021/05/18 13:29:08;;;;;;;3.60;0.90;;;17.20;99.90;;;;;;4960475;28;20581;-53
2021/05/18 13:31:38;;;;;;;4.57;1.00;;;17.60;99.90;;;;;;4959721;28;20451;-53
2021/05/18 13:34:04;;;;;;;3.80;0.80;;;17.20;99.90;;;;;;4963378;28;20420;-53
2021/05/18 13:36:33;;;;;;;4.00;0.70;;;17.00;99.90;;;;;;4959040;28;20413;-61
2021/05/18 13:39:26;;;;;;;3.60;0.80;;;17.10;99.90;;;;;;4956631;28;20392;-53
2021/05/18 13:41:52;;;;;;;4.50;1.10;;;17.20;99.90;;;;;;4952396;28;20409;-59
2021/05/18 13:44:18;;;;;;;4.85;1.10;;;17.20;99.90;;;;;;4951708;29;20743;-53
2021/05/18 13:46:46;;;;;;;4.50;1.20;;;16.90;99.90;;;;;;4951393;29;20393;-53
2021/05/18 13:49:13;;;;;;;4.55;1.30;;;16.80;99.90;;;;;;4951107;29;20782;-54
2021/05/18 13:51:39;;;;;;;4.90;0.90;;;16.40;99.90;;;;;;4936127;28;20413;-53
2021/05/18 13:54:05;;;;;;;5.25;1.00;;;15.90;99.90;;;;;;4960978;28;20390;-53
2021/05/18 13:56:31;;;;;;;4.60;1.00;;;15.70;99.90;;;;;;4959884;28;20440;-61
2021/05/18 13:58:59;;;;;;;4.00;1.00;;;15.70;99.90;;;;;;4960855;28;20404;-53
2021/05/18 14:01:24;;;;;;;4.45;0.90;;;15.70;99.90;;;;;;4959389;28;20423;-53
2021/05/18 14:03:50;;;;;;;4.30;0.80;;;15.50;99.90;;;;;;4961182;28;20484;-53
2021/05/18 14:06:16;;;;;;;4.00;0.90;;;14.80;99.90;;;;;;4960546;28;20390;-54
2021/05/18 14:08:43;;;;;;;3.70;0.70;;;14.60;99.90;;;;;;4959466;28;20454;-55
2021/05/18 14:11:12;;;;;;;3.85;0.55;;;14.60;99.90;;;;;;4961476;28;20475;-54
2021/05/18 14:13:48;;;;;;;3.50;0.70;;;14.50;99.90;;;;;;4958461;28;20487;-54
2021/05/18 14:16:15;;;;;;;3.45;0.60;;;14.90;99.90;;;;;;4962013;28;20484;-54
2021/05/18 14:18:41;;;;;;;3.45;0.70;;;15.60;99.90;;;;;;4967393;28;20876;-54
2021/05/18 14:21:08;;;;;;;3.20;0.50;;;16.00;99.90;;;;;;4964559;28;20457;-55
2021/05/18 14:26:03;;;;;;;3.95;0.70;;;16.00;99.90;;;;;;4953944;28;20398;-54
2021/05/18 14:28:28;;;;;;;3.40;0.60;;;16.10;99.90;;;;;;4950799;29;20916;-62
2021/05/18 14:30:54;;;;;;;3.88;0.60;;;16.10;99.90;;;;;;4950982;29;20813;-54
2021/05/18 14:33:20;;;;;;;3.70;0.70;;;16.50;99.90;;;;;;4934068;29;20398;-54
2021/05/18 14:35:45;;;;;;;4.30;0.90;;;16.60;99.90;;;;;;4950420;29;20862;-54
2021/05/18 14:38:16;;;;;;;4.70;1.20;;;16.60;99.90;;;;;;4951416;29;20429;-54
2021/05/18 14:46:22;;;;;;;5.63;0.80;;;15.80;99.90;;;;;;4950768;29;20796;-53
2021/05/18 14:57:05;;;;;;;4.00;1.00;;;14.10;99.90;;;;;;4951262;29;20377;-54
2021/05/18 14:59:31;;;;;;;3.17;0.70;;;13.50;99.90;;;;;;4951094;29;20499;-63
2021/05/18 15:01:57;;;;;;;3.63;0.80;;;13.20;99.90;;;;;;4962882;28;20446;-54
2021/05/18 15:04:23;;;;;;;4.40;1.15;;;13.10;99.90;;;;;;4969846;28;20783;-54
2021/05/18 15:06:48;;;;;;;3.07;0.80;;;13.30;99.90;;;;;;4969734;28;20526;-55
2021/05/18 15:09:14;;;;;;;4.90;0.80;;;13.50;99.90;;;;;;4970054;28;20416;-54
2021/05/18 15:11:40;;;;;;;4.32;0.70;;;13.60;99.90;;;;;;4969541;28;20550;-58
2021/05/18 15:14:07;;;;;;;3.33;0.70;;;13.50;99.90;;;;;;4970032;28;20471;-57
2021/05/18 15:16:33;;;;;;;3.80;0.90;;;14.10;99.90;;;;;;4969621;28;20475;-63
2021/05/18 15:19:09;;;;;;;3.40;0.70;;;14.40;99.90;;;;;;4973909;28;20388;-55
2021/05/18 15:21:35;;;;;;;3.70;0.93;;;14.90;99.90;;;;;;4973402;28;20852;-54
2021/05/18 15:24:01;;;;;;;3.10;0.60;;;15.10;99.90;;;;;;4956447;28;20419;-54
2021/05/18 15:26:27;;;;;;;3.22;0.70;;;15.30;99.90;;;;;;4956243;28;20871;-54
2021/05/18 15:28:53;;;;;;;3.90;1.00;;;15.10;99.90;;;;;;4972977;28;20420;-54
2021/05/18 15:31:20;;;;;;;3.50;0.80;;;15.20;99.90;;;;;;4973191;28;20465;-53
2021/05/18 15:33:45;;;;;;;4.90;0.70;;;15.10;99.90;;;;;;4972317;28;20400;-54
2021/05/18 15:36:13;;;;;;;4.80;0.80;;;15.00;99.90;;;;;;4973646;28;20390;-54
2021/05/18 15:38:39;;;;;;;3.80;0.80;;;14.80;99.90;;;;;;4972854;28;20882;-54
2021/05/18 15:41:07;;;;;;;3.20;0.70;;;14.70;99.90;;;;;;4973046;28;20405;-54
2021/05/18 15:43:36;;;;;;;3.30;0.60;;;14.80;99.90;;;;;;4971890;28;20384;-65
2021/05/18 15:46:03;;;;;;;7.05;2.00;;;14.50;99.90;;;;;;4973203;28;20891;-54
2021/05/18 15:48:29;;;;;;;4.55;1.40;;;14.50;99.90;;;;;;4973734;28;20389;-54
2021/05/18 15:50:55;;;;;;;5.60;1.23;;;14.50;99.90;;;;;;4972213;28;20419;-54
2021/05/18 15:53:20;;;;;;;4.15;0.90;;;14.20;99.90;;;;;;4973372;28;20423;-55
2021/05/18 15:55:46;;;;;;;4.90;0.90;;;13.50;99.90;;;;;;4971952;28;20380;-54
2021/05/18 15:58:12;;;;;;;5.30;0.80;;;12.70;99.90;;;;;;4973409;28;20411;-53
2021/05/18 16:00:37;;;;;;;4.50;1.00;;;12.30;99.90;;;;;;4970667;28;20899;-53
2021/05/18 16:03:04;;;;;;;4.00;0.80;;;12.20;99.90;;;;;;4954021;29;20398;-53
2021/05/18 16:05:30;;;;;;;4.72;0.70;;;12.10;99.90;;;;;;4953181;29;20877;-62
2021/05/18 16:08:06;;;;;;;5.30;1.00;;;12.00;99.90;;;;;;4953323;29;20416;-54
2021/05/18 16:10:32;;;;;;;3.90;0.70;;;12.00;99.90;;;;;;4953328;29;20406;-61
2021/05/18 16:12:58;;;;;;;3.80;0.70;;;11.20;99.90;;;;;;4953505;29;20390;-53
2021/05/18 16:15:24;;;;;;;3.27;0.90;;;12.20;99.90;;;;;;4952279;29;20404;-54
2021/05/18 16:17:49;;;;;;;3.00;0.60;;;12.40;99.90;;;;;;4952697;29;20390;-54
2021/05/18 16:20:15;;;;;;;4.30;0.70;;;12.50;99.90;;;;;;4953634;29;20433;-54
2021/05/18 16:22:40;;;;;;;6.40;0.90;;;12.80;99.90;;;;;;4952330;29;20449;-54
2021/05/18 16:25:08;;;;;;;3.90;0.80;;;13.30;99.90;;;;;;4953274;29;20449;-54
2021/05/18 16:27:34;;;;;;;4.32;0.90;;;13.80;99.90;;;;;;4957212;28;20404;-62
2021/05/18 16:29:59;;;;;;;3.67;0.80;;;14.10;99.90;;;;;;4962918;28;20477;-55
2021/05/18 16:32:25;;;;;;;3.77;1.00;;;14.20;99.90;;;;;;4953399;29;20398;-54
2021/05/18 16:34:51;;;;;;;3.83;0.90;;;14.20;99.90;;;;;;4952636;29;20390;-54
2021/05/18 16:37:16;;;;;;;4.20;1.10;;;14.10;99.90;;;;;;4953128;29;20398;-54
2021/05/18 16:39:42;;;;;;;5.38;1.10;;;14.10;99.90;;;;;;4952670;29;20754;-56
2021/05/18 16:42:08;;;;;;;4.50;0.90;;;14.20;99.90;;;;;;4953133;29;20535;-54
2021/05/18 16:44:33;;;;;;;3.63;1.00;;;14.20;99.90;;;;;;4952541;29;20453;-62
2021/05/18 16:46:59;;;;;;;3.42;0.90;;;14.20;99.90;;;;;;4952891;29;20444;-54
2021/05/18 16:49:25;;;;;;;5.70;1.50;;;14.00;99.90;;;;;;4953180;29;20778;-54
2021/05/18 16:51:50;;;;;;;3.70;1.20;;;14.00;99.90;;;;;;4952003;29;20847;-53
2021/05/18 16:54:17;;;;;;;4.03;0.90;;;13.80;99.90;;;;;;4953094;29;20387;-54
2021/05/18 16:56:44;;;;;;;4.00;1.00;;;13.30;99.90;;;;;;4952211;29;20398;-54
2021/05/18 16:59:09;;;;;;;4.30;0.90;;;13.10;99.90;;;;;;4935318;29;20460;-53
2021/05/18 17:01:35;;;;;;;3.20;0.80;;;12.70;99.90;;;;;;4952830;28;20402;-61
2021/05/18 17:04:01;;;;;;;3.40;1.17;;;12.50;99.90;;;;;;4952365;29;20425;-53
2021/05/18 17:06:27;;;;;;;3.00;0.70;;;12.40;99.90;;;;;;4952693;29;20401;-54
2021/05/18 17:08:53;;;;;;;3.63;1.00;;;12.20;99.90;;;;;;4951415;29;20386;-53
2021/05/18 17:11:19;;;;;;;4.50;0.90;;;12.20;99.90;;;;;;4952528;29;20401;-54
2021/05/18 17:13:45;;;;;;;3.80;1.00;;;12.10;99.90;;;;;;4951746;29;20892;-54
2021/05/18 17:16:10;;;;;;;3.60;1.30;;;12.10;99.90;;;;;;4952623;29;20390;-54
2021/05/18 17:18:36;;;;;;;3.72;0.80;;;12.10;99.90;;;;;;4951676;29;20417;-62
2021/05/18 17:21:02;;;;;;;3.65;1.00;;;12.20;99.90;;;;;;4952138;29;20937;-53
2021/05/18 17:23:28;;;;;;;4.00;1.60;;;12.30;99.90;;;;;;4952218;29;20936;-54
2021/05/18 17:25:55;;;;;;;3.33;0.90;;;12.10;99.90;;;;;;4951553;29;20404;-58
2021/05/18 17:28:22;;;;;;;3.50;1.00;;;11.80;99.90;;;;;;4952111;29;20414;-54
2021/05/18 17:30:48;;;;;;;3.30;1.00;;;11.60;99.90;;;;;;4955829;28;20515;-54
2021/05/18 17:33:15;;;;;;;3.30;1.00;;;11.70;99.90;;;;;;4966016;28;20487;-53
2021/05/18 17:35:42;;;;;;;3.30;1.00;;;11.50;99.90;;;;;;4964049;28;20399;-53
2021/05/18 17:38:07;;;;;;;3.70;1.20;;;11.50;99.90;;;;;;4971703;28;20396;-53
2021/05/18 17:40:37;;;;;;;4.03;1.03;;;11.50;99.90;;;;;;4970605;28;20431;-62
2021/05/18 17:43:04;;;;;;;4.70;1.08;;;11.40;99.90;;;;;;4971665;28;20524;-54
2021/05/18 17:45:30;;;;;;;4.60;1.02;;;11.40;99.90;;;;;;4971430;28;20565;-53
2021/05/18 17:47:55;;;;;;;4.32;1.00;;;11.40;99.90;;;;;;4968938;28;20475;-53
2021/05/18 17:50:21;;;;;;;8.37;1.00;;;11.40;99.90;;;;;;4971265;28;20420;-53
2021/05/18 17:52:47;;;;;;;5.05;1.20;;;11.30;99.90;;;;;;4969851;28;20391;-53
2021/05/18 17:55:15;;;;;;;5.70;1.30;;;11.20;99.90;;;;;;4971205;28;20420;-53
2021/05/18 17:57:41;;;;;;;3.90;0.80;;;11.10;99.90;;;;;;4970062;28;20416;-54
2021/05/18 18:00:08;;;;;;;5.40;0.90;;;10.90;99.90;;;;;;4960364;28;20400;-53